MyTimes logo

TIMES

Webb Imagery

18/01/1998
Cowes Classic
500m Swim / 4.0km Run - Local Residents

(Click on competitor name to view personalised results)

Name
Race #
Category
Team Name
Time
(h:mm:ss)
Avg Speed
km/hr
OAll
Place
Cat
Place
HOLLINS Peter #2Local Open Male0:25:28 13 10
YUSKO William #38Local Over 40 Male0:27:34 12 24
DUNLOP Nathan #48Local Junior Male0:28:11 11.7 26
DALLINGER Chris #145Local Open Male0:28:23 11.6 29
JUDD Gary #103Local Over 40 Male0:28:38 11.5 35
HUTCHISON Warwick #166Local Open Male0:29:03 11.4 40
LUNN Daniel #172Local Open Male0:29:05 11.3 42
MARSHALL Luke #144Local Open Male0:29:55 11 49
SUNDERLAND Andrew #45Local Junior Male0:30:52 10.7 61
SCHEPEMAKER Nick#96Local Open Male0:30:53 10.7 62
HEWETT Noel #137Local Open Male0:31:22 10.5 67
HAMMOND Henry #31Local Over 40 Male0:31:26 10.5 68
BEISCHER Caroline #183Local Open Female0:31:28 10.5 69
WATERSON Michael#130Local Open Male0:31:31 10.5 70
WILLIAMS Alistair #163Local Over 40 Male0:31:40 10.4 71
BRADEN Michael#5Local Open Male0:31:52 10.4 73
KENT Ryan #101Local Junior Male0:32:20 10.2 78
BROWN Michael #18Local Junior Male0:32:24 10.2 80
GARRETT Geoff #169Local Open Male0:33:40 9.8 99
DAVIE Ange#173Local Open Female0:33:43 9.8 100
YUSKO Daniel#39Local Junior Male0:34:13 9.6 106
MATTHEW Robert#52Local Over 40 Male0:34:30 9.6 112
KEADY Richard #46Local Over 40 Male0:34:31 9.6 114
FLEISER Paul#160Local Over 40 Male0:34:42 9.5 117
SPOTTISWOOD James #105Local Junior Male0:34:55 9.5 120
DALLINGER Brian #83Local Over 40 Male0:35:25 9.3 126
SUNDERLAND Peter#16Local Over 40 Male0:35:55 9.2 132
ABRAHAMSON Gareth #47Local Open Male0:36:00 9.2 133
CAMERON Jane#104Local Open Female0:36:19 9.1 139
BROWN Jim #87Local Open Male0:38:46 8.5 153
HOPKINS Barry #36Local Over 40 Male0:38:53 8.5 155
CAMPBELL Daniel #126Local Junior Male0:42:08 7.8 167
KIRKHOPE John #84Local Over 40 Male0:42:49 7.7 171
WEIR Warren #80Local Over 40 Male0:42:55 7.7 172
BREWIN Cathy#132Local Open Female0:43:45 7.5 174
REEK George #21Local Over 40 Male0:44:30 7.4 175
BAILEY Lyn#54Local Open Female0:46:43 7.1 176